sensor_id;sensor_type;location;lat;lon;timestamp;P1;durP1;ratioP1;P2;durP2;ratioP2
28796;SDS011;24974;54.444;18.560;2023-04-24T00:02:07;31.85;;;26.77;;
28796;SDS011;24974;54.444;18.560;2023-04-24T00:04:39;38.88;;;28.50;;
28796;SDS011;24974;54.444;18.560;2023-04-24T00:07:11;35.17;;;27.58;;
28796;SDS011;24974;54.444;18.560;2023-04-24T00:09:43;32.38;;;26.63;;
28796;SDS011;24974;54.444;18.560;2023-04-24T00:12:14;35.38;;;27.48;;
28796;SDS011;24974;54.444;18.560;2023-04-24T00:14:45;38.80;;;28.48;;
28796;SDS011;24974;54.444;18.560;2023-04-24T00:17:15;36.20;;;28.48;;
28796;SDS011;24974;54.444;18.560;2023-04-24T00:19:50;36.13;;;28.95;;
28796;SDS011;24974;54.444;18.560;2023-04-24T00:22:21;34.22;;;28.67;;
28796;SDS011;24974;54.444;18.560;2023-04-24T00:24:52;33.75;;;26.92;;
28796;SDS011;24974;54.444;18.560;2023-04-24T00:27:23;35.78;;;28.63;;
28796;SDS011;24974;54.444;18.560;2023-04-24T00:29:54;36.15;;;28.55;;
28796;SDS011;24974;54.444;18.560;2023-04-24T00:32:25;39.45;;;30.02;;
28796;SDS011;24974;54.444;18.560;2023-04-24T00:34:56;40.38;;;32.55;;
28796;SDS011;24974;54.444;18.560;2023-04-24T00:37:26;42.50;;;34.42;;
28796;SDS011;24974;54.444;18.560;2023-04-24T00:39:57;43.95;;;36.85;;
28796;SDS011;24974;54.444;18.560;2023-04-24T00:42:28;43.40;;;36.22;;
28796;SDS011;24974;54.444;18.560;2023-04-24T00:44:59;46.75;;;36.28;;
28796;SDS011;24974;54.444;18.560;2023-04-24T00:47:32;44.15;;;35.40;;
28796;SDS011;24974;54.444;18.560;2023-04-24T00:50:04;50.22;;;37.55;;
28796;SDS011;24974;54.444;18.560;2023-04-24T00:52:36;46.00;;;34.60;;
28796;SDS011;24974;54.444;18.560;2023-04-24T00:55:07;42.97;;;35.50;;
28796;SDS011;24974;54.444;18.560;2023-04-24T00:57:38;45.17;;;36.40;;
28796;SDS011;24974;54.444;18.560;2023-04-24T01:00:10;44.10;;;36.10;;
28796;SDS011;24974;54.444;18.560;2023-04-24T01:02:43;46.65;;;36.65;;
28796;SDS011;24974;54.444;18.560;2023-04-24T01:05:15;48.60;;;36.75;;
28796;SDS011;24974;54.444;18.560;2023-04-24T01:07:47;48.05;;;37.08;;
28796;SDS011;24974;54.444;18.560;2023-04-24T01:10:19;47.10;;;38.40;;
28796;SDS011;24974;54.444;18.560;2023-04-24T01:12:50;49.15;;;37.50;;
28796;SDS011;24974;54.444;18.560;2023-04-24T01:15:22;44.15;;;36.63;;
28796;SDS011;24974;54.444;18.560;2023-04-24T01:17:53;46.42;;;35.92;;
28796;SDS011;24974;54.444;18.560;2023-04-24T01:20:25;48.67;;;36.97;;
28796;SDS011;24974;54.444;18.560;2023-04-24T01:22:56;46.72;;;36.50;;
28796;SDS011;24974;54.444;18.560;2023-04-24T01:25:27;48.72;;;36.97;;
28796;SDS011;24974;54.444;18.560;2023-04-24T01:28:01;51.47;;;37.03;;
28796;SDS011;24974;54.444;18.560;2023-04-24T01:30:32;48.72;;;35.83;;
28796;SDS011;24974;54.444;18.560;2023-04-24T01:33:03;50.05;;;37.35;;
28796;SDS011;24974;54.444;18.560;2023-04-24T01:35:34;51.25;;;38.80;;
28796;SDS011;24974;54.444;18.560;2023-04-24T01:38:06;53.15;;;37.78;;
28796;SDS011;24974;54.444;18.560;2023-04-24T01:40:37;46.17;;;36.83;;
28796;SDS011;24974;54.444;18.560;2023-04-24T01:43:08;51.65;;;39.05;;
28796;SDS011;24974;54.444;18.560;2023-04-24T01:45:39;52.40;;;40.08;;
28796;SDS011;24974;54.444;18.560;2023-04-24T01:48:11;53.00;;;37.10;;
28796;SDS011;24974;54.444;18.560;2023-04-24T01:50:43;47.47;;;35.35;;
28796;SDS011;24974;54.444;18.560;2023-04-24T01:53:16;46.10;;;35.75;;
28796;SDS011;24974;54.444;18.560;2023-04-24T01:55:46;49.63;;;37.17;;
28796;SDS011;24974;54.444;18.560;2023-04-24T01:58:17;42.45;;;33.95;;
28796;SDS011;24974;54.444;18.560;2023-04-24T02:00:48;44.83;;;33.78;;
28796;SDS011;24974;54.444;18.560;2023-04-24T02:03:19;43.70;;;32.55;;
28796;SDS011;24974;54.444;18.560;2023-04-24T02:05:52;42.72;;;32.33;;
28796;SDS011;24974;54.444;18.560;2023-04-24T02:08:23;47.95;;;34.05;;
28796;SDS011;24974;54.444;18.560;2023-04-24T02:10:55;46.75;;;34.15;;
28796;SDS011;24974;54.444;18.560;2023-04-24T02:13:26;46.15;;;33.35;;
28796;SDS011;24974;54.444;18.560;2023-04-24T02:15:58;44.15;;;32.05;;
28796;SDS011;24974;54.444;18.560;2023-04-24T02:18:29;41.58;;;31.85;;
28796;SDS011;24974;54.444;18.560;2023-04-24T02:21:01;36.42;;;27.88;;
28796;SDS011;24974;54.444;18.560;2023-04-24T02:23:32;37.92;;;29.15;;
28796;SDS011;24974;54.444;18.560;2023-04-24T02:26:03;31.23;;;25.17;;
28796;SDS011;24974;54.444;18.560;2023-04-24T02:28:33;32.55;;;23.83;;
28796;SDS011;24974;54.444;18.560;2023-04-24T02:31:04;28.20;;;23.35;;
28796;SDS011;24974;54.444;18.560;2023-04-24T02:33:36;29.70;;;23.85;;
28796;SDS011;24974;54.444;18.560;2023-04-24T02:36:07;29.17;;;24.20;;
28796;SDS011;24974;54.444;18.560;2023-04-24T02:38:38;29.75;;;23.45;;
28796;SDS011;24974;54.444;18.560;2023-04-24T02:41:09;27.67;;;22.65;;
28796;SDS011;24974;54.444;18.560;2023-04-24T02:43:40;30.15;;;23.25;;
28796;SDS011;24974;54.444;18.560;2023-04-24T02:46:11;28.63;;;22.75;;
28796;SDS011;24974;54.444;18.560;2023-04-24T02:48:42;33.83;;;25.75;;
28796;SDS011;24974;54.444;18.560;2023-04-24T02:51:13;31.20;;;23.58;;
28796;SDS011;24974;54.444;18.560;2023-04-24T02:53:43;31.50;;;24.13;;
28796;SDS011;24974;54.444;18.560;2023-04-24T02:56:14;32.08;;;26.08;;
28796;SDS011;24974;54.444;18.560;2023-04-24T02:58:45;30.08;;;25.20;;
28796;SDS011;24974;54.444;18.560;2023-04-24T03:01:16;31.50;;;25.75;;
28796;SDS011;24974;54.444;18.560;2023-04-24T03:03:48;37.13;;;27.23;;
28796;SDS011;24974;54.444;18.560;2023-04-24T03:06:19;35.10;;;24.50;;
28796;SDS011;24974;54.444;18.560;2023-04-24T03:08:51;33.42;;;26.75;;
28796;SDS011;24974;54.444;18.560;2023-04-24T03:11:22;36.65;;;25.65;;
28796;SDS011;24974;54.444;18.560;2023-04-24T03:13:53;36.20;;;26.20;;
28796;SDS011;24974;54.444;18.560;2023-04-24T03:16:24;41.65;;;28.58;;
28796;SDS011;24974;54.444;18.560;2023-04-24T03:18:54;40.75;;;26.95;;
28796;SDS011;24974;54.444;18.560;2023-04-24T03:21:27;41.63;;;25.20;;
28796;SDS011;24974;54.444;18.560;2023-04-24T03:23:58;42.22;;;27.63;;
28796;SDS011;24974;54.444;18.560;2023-04-24T03:26:30;47.50;;;29.95;;
28796;SDS011;24974;54.444;18.560;2023-04-24T03:29:13;41.25;;;29.38;;
28796;SDS011;24974;54.444;18.560;2023-04-24T03:31:44;44.33;;;30.45;;
28796;SDS011;24974;54.444;18.560;2023-04-24T03:34:15;40.67;;;28.50;;
28796;SDS011;24974;54.444;18.560;2023-04-24T03:36:47;40.92;;;27.45;;
28796;SDS011;24974;54.444;18.560;2023-04-24T03:39:18;38.53;;;27.67;;
28796;SDS011;24974;54.444;18.560;2023-04-24T03:41:55;42.05;;;28.13;;
28796;SDS011;24974;54.444;18.560;2023-04-24T03:44:32;57.45;;;32.95;;
28796;SDS011;24974;54.444;18.560;2023-04-24T03:47:04;47.55;;;27.67;;
28796;SDS011;24974;54.444;18.560;2023-04-24T03:49:36;44.55;;;26.17;;
28796;SDS011;24974;54.444;18.560;2023-04-24T03:52:08;42.22;;;26.35;;
28796;SDS011;24974;54.444;18.560;2023-04-24T03:54:39;44.15;;;26.60;;
28796;SDS011;24974;54.444;18.560;2023-04-24T03:57:10;38.88;;;26.33;;
28796;SDS011;24974;54.444;18.560;2023-04-24T03:59:48;37.63;;;25.58;;
28796;SDS011;24974;54.444;18.560;2023-04-24T04:02:23;69.43;;;29.13;;
28796;SDS011;24974;54.444;18.560;2023-04-24T04:04:54;40.10;;;26.58;;
28796;SDS011;24974;54.444;18.560;2023-04-24T04:07:24;43.65;;;28.85;;
28796;SDS011;24974;54.444;18.560;2023-04-24T04:09:56;41.00;;;27.88;;
28796;SDS011;24974;54.444;18.560;2023-04-24T04:12:28;46.47;;;28.60;;
28796;SDS011;24974;54.444;18.560;2023-04-24T04:14:59;38.55;;;27.08;;
28796;SDS011;24974;54.444;18.560;2023-04-24T04:17:30;40.65;;;27.67;;
28796;SDS011;24974;54.444;18.560;2023-04-24T04:20:03;46.55;;;28.90;;
28796;SDS011;24974;54.444;18.560;2023-04-24T04:22:40;48.42;;;31.27;;
28796;SDS011;24974;54.444;18.560;2023-04-24T04:25:13;43.00;;;28.85;;
28796;SDS011;24974;54.444;18.560;2023-04-24T04:27:45;39.35;;;28.30;;
28796;SDS011;24974;54.444;18.560;2023-04-24T04:30:18;42.80;;;29.50;;
28796;SDS011;24974;54.444;18.560;2023-04-24T04:32:55;41.88;;;30.35;;
28796;SDS011;24974;54.444;18.560;2023-04-24T04:35:26;38.20;;;28.98;;
28796;SDS011;24974;54.444;18.560;2023-04-24T04:37:58;40.15;;;29.15;;
28796;SDS011;24974;54.444;18.560;2023-04-24T04:40:47;39.17;;;30.05;;
28796;SDS011;24974;54.444;18.560;2023-04-24T04:43:25;41.83;;;28.85;;
28796;SDS011;24974;54.444;18.560;2023-04-24T04:45:58;48.92;;;28.80;;
28796;SDS011;24974;54.444;18.560;2023-04-24T04:48:30;40.38;;;28.40;;
28796;SDS011;24974;54.444;18.560;2023-04-24T04:51:04;42.15;;;28.50;;
28796;SDS011;24974;54.444;18.560;2023-04-24T04:53:35;38.28;;;28.38;;
28796;SDS011;24974;54.444;18.560;2023-04-24T04:56:08;39.30;;;26.35;;
28796;SDS011;24974;54.444;18.560;2023-04-24T04:58:43;39.50;;;27.98;;
28796;SDS011;24974;54.444;18.560;2023-04-24T05:01:18;38.33;;;25.92;;
28796;SDS011;24974;54.444;18.560;2023-04-24T05:03:51;40.28;;;26.33;;
28796;SDS011;24974;54.444;18.560;2023-04-24T05:06:22;39.60;;;26.75;;
28796;SDS011;24974;54.444;18.560;2023-04-24T05:08:53;40.95;;;26.55;;
28796;SDS011;24974;54.444;18.560;2023-04-24T05:11:43;41.65;;;26.48;;
28796;SDS011;24974;54.444;18.560;2023-04-24T05:14:15;39.17;;;25.92;;
28796;SDS011;24974;54.444;18.560;2023-04-24T05:16:48;42.10;;;26.80;;
28796;SDS011;24974;54.444;18.560;2023-04-24T05:19:22;45.17;;;27.98;;
28796;SDS011;24974;54.444;18.560;2023-04-24T05:21:52;42.47;;;27.05;;
28796;SDS011;24974;54.444;18.560;2023-04-24T05:24:24;43.83;;;26.85;;
28796;SDS011;24974;54.444;18.560;2023-04-24T05:27:13;41.38;;;26.92;;
28796;SDS011;24974;54.444;18.560;2023-04-24T05:29:45;49.42;;;28.23;;
28796;SDS011;24974;54.444;18.560;2023-04-24T05:32:16;46.28;;;28.25;;
28796;SDS011;24974;54.444;18.560;2023-04-24T05:34:46;50.80;;;29.98;;
28796;SDS011;24974;54.444;18.560;2023-04-24T05:37:18;47.60;;;30.52;;
28796;SDS011;24974;54.444;18.560;2023-04-24T05:39:49;50.33;;;30.73;;
28796;SDS011;24974;54.444;18.560;2023-04-24T05:42:19;44.20;;;29.38;;
28796;SDS011;24974;54.444;18.560;2023-04-24T05:44:50;48.35;;;30.77;;
28796;SDS011;24974;54.444;18.560;2023-04-24T05:47:21;49.60;;;30.90;;
28796;SDS011;24974;54.444;18.560;2023-04-24T05:49:53;52.72;;;29.70;;
28796;SDS011;24974;54.444;18.560;2023-04-24T05:52:24;57.83;;;31.02;;
28796;SDS011;24974;54.444;18.560;2023-04-24T05:54:55;54.03;;;32.28;;
28796;SDS011;24974;54.444;18.560;2023-04-24T05:57:29;56.28;;;32.80;;
28796;SDS011;24974;54.444;18.560;2023-04-24T06:00:06;58.45;;;32.95;;
28796;SDS011;24974;54.444;18.560;2023-04-24T06:02:46;63.22;;;33.08;;
28796;SDS011;24974;54.444;18.560;2023-04-24T06:05:18;53.80;;;33.15;;
28796;SDS011;24974;54.444;18.560;2023-04-24T06:07:49;46.08;;;28.65;;
28796;SDS011;24974;54.444;18.560;2023-04-24T06:10:22;38.47;;;25.50;;
28796;SDS011;24974;54.444;18.560;2023-04-24T06:12:53;39.67;;;24.48;;
28796;SDS011;24974;54.444;18.560;2023-04-24T06:15:29;38.00;;;23.63;;
28796;SDS011;24974;54.444;18.560;2023-04-24T06:18:29;40.13;;;23.00;;
28796;SDS011;24974;54.444;18.560;2023-04-24T06:21:01;36.75;;;21.40;;
28796;SDS011;24974;54.444;18.560;2023-04-24T06:23:31;30.92;;;20.05;;
28796;SDS011;24974;54.444;18.560;2023-04-24T06:26:03;23.27;;;16.38;;
28796;SDS011;24974;54.444;18.560;2023-04-24T06:28:36;26.65;;;16.48;;
28796;SDS011;24974;54.444;18.560;2023-04-24T06:31:06;24.65;;;16.75;;
28796;SDS011;24974;54.444;18.560;2023-04-24T06:33:37;23.95;;;16.25;;
28796;SDS011;24974;54.444;18.560;2023-04-24T06:36:08;22.10;;;16.08;;
28796;SDS011;24974;54.444;18.560;2023-04-24T06:38:39;19.42;;;14.77;;
28796;SDS011;24974;54.444;18.560;2023-04-24T06:41:10;21.25;;;14.93;;
28796;SDS011;24974;54.444;18.560;2023-04-24T06:43:41;15.60;;;13.43;;
28796;SDS011;24974;54.444;18.560;2023-04-24T06:46:12;14.50;;;12.23;;
28796;SDS011;24974;54.444;18.560;2023-04-24T06:48:43;14.10;;;11.93;;
28796;SDS011;24974;54.444;18.560;2023-04-24T06:51:14;14.05;;;11.70;;
28796;SDS011;24974;54.444;18.560;2023-04-24T06:53:45;13.15;;;11.20;;
28796;SDS011;24974;54.444;18.560;2023-04-24T06:56:15;13.60;;;10.55;;
28796;SDS011;24974;54.444;18.560;2023-04-24T06:58:46;13.18;;;11.60;;
28796;SDS011;24974;54.444;18.560;2023-04-24T07:01:17;14.30;;;10.30;;
28796;SDS011;24974;54.444;18.560;2023-04-24T07:03:48;12.38;;;11.07;;
28796;SDS011;24974;54.444;18.560;2023-04-24T07:06:19;13.25;;;11.85;;
28796;SDS011;24974;54.444;18.560;2023-04-24T07:08:53;13.85;;;11.23;;
28796;SDS011;24974;54.444;18.560;2023-04-24T07:11:24;14.98;;;13.30;;
28796;SDS011;24974;54.444;18.560;2023-04-24T07:13:59;12.25;;;10.95;;
28796;SDS011;24974;54.444;18.560;2023-04-24T07:16:30;13.63;;;12.02;;
28796;SDS011;24974;54.444;18.560;2023-04-24T07:19:01;16.70;;;13.73;;
28796;SDS011;24974;54.444;18.560;2023-04-24T07:21:32;19.55;;;14.90;;
28796;SDS011;24974;54.444;18.560;2023-04-24T07:24:02;16.70;;;13.98;;
28796;SDS011;24974;54.444;18.560;2023-04-24T07:26:33;20.67;;;15.38;;
28796;SDS011;24974;54.444;18.560;2023-04-24T07:29:04;17.48;;;15.27;;
28796;SDS011;24974;54.444;18.560;2023-04-24T07:31:35;21.77;;;15.73;;
28796;SDS011;24974;54.444;18.560;2023-04-24T07:34:06;17.48;;;14.90;;
28796;SDS011;24974;54.444;18.560;2023-04-24T07:36:37;15.38;;;13.80;;
28796;SDS011;24974;54.444;18.560;2023-04-24T07:39:10;16.35;;;14.65;;
28796;SDS011;24974;54.444;18.560;2023-04-24T07:41:41;16.55;;;14.65;;
28796;SDS011;24974;54.444;18.560;2023-04-24T07:44:12;16.10;;;14.40;;
28796;SDS011;24974;54.444;18.560;2023-04-24T07:46:43;18.35;;;15.48;;
28796;SDS011;24974;54.444;18.560;2023-04-24T07:49:14;16.13;;;14.38;;
28796;SDS011;24974;54.444;18.560;2023-04-24T07:51:44;15.50;;;13.95;;
28796;SDS011;24974;54.444;18.560;2023-04-24T07:54:15;17.52;;;15.73;;
28796;SDS011;24974;54.444;18.560;2023-04-24T07:56:47;14.73;;;13.18;;
28796;SDS011;24974;54.444;18.560;2023-04-24T07:59:18;17.90;;;14.45;;
28796;SDS011;24974;54.444;18.560;2023-04-24T08:01:49;19.58;;;16.08;;
28796;SDS011;24974;54.444;18.560;2023-04-24T08:04:20;21.20;;;17.15;;
28796;SDS011;24974;54.444;18.560;2023-04-24T08:06:51;24.45;;;18.20;;
28796;SDS011;24974;54.444;18.560;2023-04-24T08:09:22;20.38;;;17.30;;
28796;SDS011;24974;54.444;18.560;2023-04-24T08:11:53;25.35;;;17.15;;
28796;SDS011;24974;54.444;18.560;2023-04-24T08:14:24;24.92;;;18.85;;
28796;SDS011;24974;54.444;18.560;2023-04-24T08:16:55;26.52;;;18.10;;
28796;SDS011;24974;54.444;18.560;2023-04-24T08:19:26;22.85;;;18.73;;
28796;SDS011;24974;54.444;18.560;2023-04-24T08:21:57;29.48;;;20.20;;
28796;SDS011;24974;54.444;18.560;2023-04-24T08:24:28;28.15;;;19.98;;
28796;SDS011;24974;54.444;18.560;2023-04-24T08:26:59;27.25;;;20.63;;
28796;SDS011;24974;54.444;18.560;2023-04-24T08:29:31;26.85;;;20.30;;
28796;SDS011;24974;54.444;18.560;2023-04-24T08:32:02;30.05;;;21.33;;
28796;SDS011;24974;54.444;18.560;2023-04-24T08:34:33;29.55;;;20.50;;
28796;SDS011;24974;54.444;18.560;2023-04-24T08:37:04;26.73;;;20.40;;
28796;SDS011;24974;54.444;18.560;2023-04-24T08:39:34;24.20;;;19.98;;
28796;SDS011;24974;54.444;18.560;2023-04-24T08:42:05;26.17;;;19.85;;
28796;SDS011;24974;54.444;18.560;2023-04-24T08:44:38;24.92;;;19.38;;
28796;SDS011;24974;54.444;18.560;2023-04-24T08:47:09;31.67;;;20.80;;
28796;SDS011;24974;54.444;18.560;2023-04-24T08:49:41;28.48;;;21.17;;
28796;SDS011;24974;54.444;18.560;2023-04-24T08:52:13;30.73;;;22.73;;
28796;SDS011;24974;54.444;18.560;2023-04-24T08:54:45;32.95;;;22.70;;
28796;SDS011;24974;54.444;18.560;2023-04-24T08:57:17;32.50;;;21.77;;
28796;SDS011;24974;54.444;18.560;2023-04-24T08:59:49;29.58;;;20.50;;
28796;SDS011;24974;54.444;18.560;2023-04-24T09:02:20;33.80;;;22.00;;
28796;SDS011;24974;54.444;18.560;2023-04-24T09:04:52;23.60;;;17.27;;
28796;SDS011;24974;54.444;18.560;2023-04-24T09:07:26;22.02;;;15.80;;
28796;SDS011;24974;54.444;18.560;2023-04-24T09:09:59;23.95;;;15.82;;
28796;SDS011;24974;54.444;18.560;2023-04-24T09:12:32;22.80;;;15.90;;
28796;SDS011;24974;54.444;18.560;2023-04-24T09:15:04;21.25;;;15.18;;
28796;SDS011;24974;54.444;18.560;2023-04-24T09:17:38;20.63;;;15.60;;
28796;SDS011;24974;54.444;18.560;2023-04-24T09:20:09;23.23;;;17.48;;
28796;SDS011;24974;54.444;18.560;2023-04-24T09:22:41;20.30;;;16.75;;
28796;SDS011;24974;54.444;18.560;2023-04-24T09:25:13;18.58;;;15.45;;
28796;SDS011;24974;54.444;18.560;2023-04-24T09:27:45;23.17;;;17.35;;
28796;SDS011;24974;54.444;18.560;2023-04-24T09:30:19;24.05;;;17.30;;
28796;SDS011;24974;54.444;18.560;2023-04-24T09:35:49;20.75;;;15.77;;
28796;SDS011;24974;54.444;18.560;2023-04-24T09:38:31;21.27;;;15.38;;
28796;SDS011;24974;54.444;18.560;2023-04-24T09:41:05;20.38;;;16.55;;
28796;SDS011;24974;54.444;18.560;2023-04-24T09:43:36;23.25;;;17.27;;
28796;SDS011;24974;54.444;18.560;2023-04-24T09:46:08;25.15;;;17.27;;
28796;SDS011;24974;54.444;18.560;2023-04-24T09:48:41;26.88;;;16.63;;
28796;SDS011;24974;54.444;18.560;2023-04-24T09:51:12;24.10;;;17.38;;
28796;SDS011;24974;54.444;18.560;2023-04-24T09:53:46;26.40;;;17.95;;
28796;SDS011;24974;54.444;18.560;2023-04-24T09:56:21;22.25;;;15.80;;
28796;SDS011;24974;54.444;18.560;2023-04-24T09:58:58;20.60;;;15.43;;
28796;SDS011;24974;54.444;18.560;2023-04-24T10:01:35;23.90;;;16.98;;
28796;SDS011;24974;54.444;18.560;2023-04-24T10:04:06;20.70;;;16.90;;
28796;SDS011;24974;54.444;18.560;2023-04-24T10:06:37;22.55;;;17.80;;
28796;SDS011;24974;54.444;18.560;2023-04-24T10:09:08;21.40;;;16.88;;
28796;SDS011;24974;54.444;18.560;2023-04-24T10:11:42;23.13;;;17.15;;
28796;SDS011;24974;54.444;18.560;2023-04-24T10:14:16;21.73;;;17.55;;
28796;SDS011;24974;54.444;18.560;2023-04-24T10:16:49;23.23;;;16.27;;
28796;SDS011;24974;54.444;18.560;2023-04-24T10:19:21;21.60;;;16.70;;
28796;SDS011;24974;54.444;18.560;2023-04-24T10:21:56;22.13;;;15.88;;
28796;SDS011;24974;54.444;18.560;2023-04-24T10:24:28;19.23;;;14.50;;
28796;SDS011;24974;54.444;18.560;2023-04-24T10:27:00;22.77;;;14.60;;
28796;SDS011;24974;54.444;18.560;2023-04-24T10:29:32;18.23;;;13.65;;
28796;SDS011;24974;54.444;18.560;2023-04-24T10:32:06;19.67;;;12.98;;
28796;SDS011;24974;54.444;18.560;2023-04-24T10:34:39;17.88;;;11.93;;
28796;SDS011;24974;54.444;18.560;2023-04-24T10:37:10;17.02;;;11.38;;
28796;SDS011;24974;54.444;18.560;2023-04-24T10:39:41;11.80;;;10.25;;
28796;SDS011;24974;54.444;18.560;2023-04-24T10:42:13;13.50;;;10.35;;
28796;SDS011;24974;54.444;18.560;2023-04-24T10:44:48;13.35;;;9.30;;
28796;SDS011;24974;54.444;18.560;2023-04-24T10:47:20;13.80;;;9.95;;
28796;SDS011;24974;54.444;18.560;2023-04-24T10:49:51;13.00;;;8.98;;
28796;SDS011;24974;54.444;18.560;2023-04-24T10:52:22;9.90;;;8.63;;
28796;SDS011;24974;54.444;18.560;2023-04-24T10:54:53;13.57;;;9.63;;
28796;SDS011;24974;54.444;18.560;2023-04-24T10:57:28;11.15;;;9.77;;
28796;SDS011;24974;54.444;18.560;2023-04-24T11:00:14;15.45;;;9.07;;
28796;SDS011;24974;54.444;18.560;2023-04-24T11:02:52;11.43;;;9.27;;
28796;SDS011;24974;54.444;18.560;2023-04-24T11:05:48;12.82;;;10.25;;
28796;SDS011;24974;54.444;18.560;2023-04-24T11:08:39;12.48;;;10.07;;
28796;SDS011;24974;54.444;18.560;2023-04-24T11:11:15;14.82;;;10.18;;
28796;SDS011;24974;54.444;18.560;2023-04-24T11:14:09;12.40;;;9.55;;
28796;SDS011;24974;54.444;18.560;2023-04-24T11:19:18;14.07;;;10.57;;
28796;SDS011;24974;54.444;18.560;2023-04-24T11:27:15;16.70;;;10.82;;
28796;SDS011;24974;54.444;18.560;2023-04-24T11:37:57;14.82;;;11.88;;
28796;SDS011;24974;54.444;18.560;2023-04-24T11:40:29;16.45;;;11.77;;
28796;SDS011;24974;54.444;18.560;2023-04-24T11:43:00;16.08;;;11.60;;
28796;SDS011;24974;54.444;18.560;2023-04-24T11:45:31;12.27;;;10.98;;
28796;SDS011;24974;54.444;18.560;2023-04-24T11:48:02;14.13;;;11.82;;
28796;SDS011;24974;54.444;18.560;2023-04-24T11:50:33;19.80;;;12.20;;
28796;SDS011;24974;54.444;18.560;2023-04-24T11:53:04;22.33;;;12.25;;
28796;SDS011;24974;54.444;18.560;2023-04-24T11:55:35;14.70;;;12.52;;
28796;SDS011;24974;54.444;18.560;2023-04-24T11:58:06;18.60;;;12.32;;
28796;SDS011;24974;54.444;18.560;2023-04-24T12:00:36;16.23;;;10.77;;
28796;SDS011;24974;54.444;18.560;2023-04-24T12:03:09;18.35;;;10.73;;
28796;SDS011;24974;54.444;18.560;2023-04-24T12:05:41;16.13;;;11.63;;
28796;SDS011;24974;54.444;18.560;2023-04-24T12:08:12;12.50;;;10.50;;
28796;SDS011;24974;54.444;18.560;2023-04-24T12:10:57;16.35;;;10.10;;
28796;SDS011;24974;54.444;18.560;2023-04-24T12:13:30;14.25;;;11.38;;
28796;SDS011;24974;54.444;18.560;2023-04-24T12:16:03;23.60;;;11.20;;
28796;SDS011;24974;54.444;18.560;2023-04-24T12:18:35;16.98;;;11.15;;
28796;SDS011;24974;54.444;18.560;2023-04-24T12:21:19;10.88;;;6.68;;
28796;SDS011;24974;54.444;18.560;2023-04-24T12:23:55;9.70;;;5.68;;
28796;SDS011;24974;54.444;18.560;2023-04-24T12:26:26;10.70;;;5.65;;
28796;SDS011;24974;54.444;18.560;2023-04-24T12:29:01;9.77;;;5.97;;
28796;SDS011;24974;54.444;18.560;2023-04-24T12:31:33;10.02;;;6.60;;
28796;SDS011;24974;54.444;18.560;2023-04-24T12:34:04;7.28;;;5.30;;
28796;SDS011;24974;54.444;18.560;2023-04-24T12:36:48;9.10;;;5.38;;
28796;SDS011;24974;54.444;18.560;2023-04-24T12:39:19;10.07;;;5.55;;
28796;SDS011;24974;54.444;18.560;2023-04-24T12:41:56;9.13;;;5.57;;
28796;SDS011;24974;54.444;18.560;2023-04-24T12:47:02;6.32;;;4.78;;
28796;SDS011;24974;54.444;18.560;2023-04-24T12:49:33;5.75;;;4.82;;
28796;SDS011;24974;54.444;18.560;2023-04-24T12:52:04;5.47;;;4.90;;
28796;SDS011;24974;54.444;18.560;2023-04-24T12:54:35;11.30;;;4.50;;
28796;SDS011;24974;54.444;18.560;2023-04-24T12:57:05;11.25;;;4.53;;
28796;SDS011;24974;54.444;18.560;2023-04-24T12:59:36;11.52;;;4.60;;
28796;SDS011;24974;54.444;18.560;2023-04-24T13:02:07;6.97;;;4.25;;
28796;SDS011;24974;54.444;18.560;2023-04-24T13:04:39;9.50;;;4.80;;
28796;SDS011;24974;54.444;18.560;2023-04-24T13:07:10;12.63;;;4.63;;
28796;SDS011;24974;54.444;18.560;2023-04-24T13:09:41;7.38;;;4.55;;
28796;SDS011;24974;54.444;18.560;2023-04-24T13:12:13;7.28;;;4.50;;
28796;SDS011;24974;54.444;18.560;2023-04-24T13:14:44;6.57;;;4.25;;
28796;SDS011;24974;54.444;18.560;2023-04-24T13:17:16;4.95;;;4.20;;
28796;SDS011;24974;54.444;18.560;2023-04-24T13:19:49;5.22;;;4.22;;
28796;SDS011;24974;54.444;18.560;2023-04-24T13:22:21;7.80;;;4.28;;
28796;SDS011;24974;54.444;18.560;2023-04-24T13:24:52;10.20;;;4.88;;
28796;SDS011;24974;54.444;18.560;2023-04-24T13:27:22;5.72;;;4.43;;
28796;SDS011;24974;54.444;18.560;2023-04-24T13:29:53;7.28;;;4.55;;
28796;SDS011;24974;54.444;18.560;2023-04-24T13:32:24;9.15;;;4.13;;
28796;SDS011;24974;54.444;18.560;2023-04-24T13:34:56;9.10;;;4.93;;
28796;SDS011;24974;54.444;18.560;2023-04-24T13:37:27;5.28;;;4.25;;
28796;SDS011;24974;54.444;18.560;2023-04-24T13:39:58;7.97;;;4.88;;
28796;SDS011;24974;54.444;18.560;2023-04-24T13:42:28;6.88;;;4.15;;
28796;SDS011;24974;54.444;18.560;2023-04-24T13:44:59;9.43;;;4.35;;
28796;SDS011;24974;54.444;18.560;2023-04-24T13:47:30;5.35;;;4.10;;
28796;SDS011;24974;54.444;18.560;2023-04-24T13:50:01;5.78;;;3.63;;
28796;SDS011;24974;54.444;18.560;2023-04-24T13:52:32;7.20;;;3.95;;
28796;SDS011;24974;54.444;18.560;2023-04-24T13:55:03;4.70;;;3.95;;
28796;SDS011;24974;54.444;18.560;2023-04-24T13:57:34;6.07;;;4.30;;
28796;SDS011;24974;54.444;18.560;2023-04-24T14:00:05;5.35;;;4.18;;
28796;SDS011;24974;54.444;18.560;2023-04-24T14:02:40;6.32;;;4.38;;
28796;SDS011;24974;54.444;18.560;2023-04-24T14:05:12;6.10;;;3.83;;
28796;SDS011;24974;54.444;18.560;2023-04-24T14:07:45;6.22;;;4.35;;
28796;SDS011;24974;54.444;18.560;2023-04-24T14:10:16;8.75;;;4.10;;
28796;SDS011;24974;54.444;18.560;2023-04-24T14:12:46;9.27;;;3.92;;
28796;SDS011;24974;54.444;18.560;2023-04-24T14:15:17;5.53;;;4.53;;
28796;SDS011;24974;54.444;18.560;2023-04-24T14:17:48;5.45;;;3.80;;
28796;SDS011;24974;54.444;18.560;2023-04-24T14:20:20;6.88;;;4.10;;
28796;SDS011;24974;54.444;18.560;2023-04-24T14:22:51;7.18;;;4.22;;
28796;SDS011;24974;54.444;18.560;2023-04-24T14:25:22;5.78;;;4.22;;
28796;SDS011;24974;54.444;18.560;2023-04-24T14:27:53;4.68;;;3.60;;
28796;SDS011;24974;54.444;18.560;2023-04-24T14:30:23;9.45;;;3.83;;
28796;SDS011;24974;54.444;18.560;2023-04-24T14:32:54;5.90;;;4.82;;
28796;SDS011;24974;54.444;18.560;2023-04-24T14:35:25;6.78;;;4.07;;
28796;SDS011;24974;54.444;18.560;2023-04-24T14:37:56;8.02;;;5.65;;
28796;SDS011;24974;54.444;18.560;2023-04-24T14:40:27;6.03;;;4.40;;
28796;SDS011;24974;54.444;18.560;2023-04-24T14:42:58;7.70;;;4.50;;
28796;SDS011;24974;54.444;18.560;2023-04-24T14:45:29;7.93;;;4.72;;
28796;SDS011;24974;54.444;18.560;2023-04-24T14:48:00;8.32;;;4.85;;
28796;SDS011;24974;54.444;18.560;2023-04-24T14:50:31;8.10;;;4.18;;
28796;SDS011;24974;54.444;18.560;2023-04-24T14:53:02;16.02;;;5.32;;
28796;SDS011;24974;54.444;18.560;2023-04-24T14:55:32;6.07;;;4.85;;
28796;SDS011;24974;54.444;18.560;2023-04-24T14:58:06;6.90;;;4.82;;
28796;SDS011;24974;54.444;18.560;2023-04-24T15:00:37;14.90;;;5.10;;
28796;SDS011;24974;54.444;18.560;2023-04-24T15:03:08;8.48;;;5.13;;
28796;SDS011;24974;54.444;18.560;2023-04-24T15:05:38;7.63;;;4.90;;